sensor_id;sensor_type;location;lat;lon;timestamp;temperature;humidity
2012;DHT22;1009;51.436;6.972;2023-05-29T00:01:45;14.70;99.90
2012;DHT22;1009;51.436;6.972;2023-05-29T00:04:14;14.60;99.90
2012;DHT22;1009;51.436;6.972;2023-05-29T00:06:41;14.60;99.90
2012;DHT22;1009;51.436;6.972;2023-05-29T00:09:08;14.60;99.90
2012;DHT22;1009;51.436;6.972;2023-05-29T00:11:34;14.60;99.90
2012;DHT22;1009;51.436;6.972;2023-05-29T00:14:03;14.60;99.90
2012;DHT22;1009;51.436;6.972;2023-05-29T00:16:30;14.60;99.90
2012;DHT22;1009;51.436;6.972;2023-05-29T00:18:57;14.50;99.90
2012;DHT22;1009;51.436;6.972;2023-05-29T00:21:23;14.50;99.90
2012;DHT22;1009;51.436;6.972;2023-05-29T00:23:50;14.40;99.90
2012;DHT22;1009;51.436;6.972;2023-05-29T00:26:17;14.40;99.90
2012;DHT22;1009;51.436;6.972;2023-05-29T00:28:44;14.30;99.90
2012;DHT22;1009;51.436;6.972;2023-05-29T00:31:12;14.20;99.90
2012;DHT22;1009;51.436;6.972;2023-05-29T00:33:39;14.20;99.90
2012;DHT22;1009;51.436;6.972;2023-05-29T00:36:06;14.20;99.90
2012;DHT22;1009;51.436;6.972;2023-05-29T00:38:33;14.10;99.90
2012;DHT22;1009;51.436;6.972;2023-05-29T00:40:59;14.00;99.90
2012;DHT22;1009;51.436;6.972;2023-05-29T00:43:28;14.00;99.90
2012;DHT22;1009;51.436;6.972;2023-05-29T00:45:55;13.90;99.90
2012;DHT22;1009;51.436;6.972;2023-05-29T00:48:23;13.80;99.90
2012;DHT22;1009;51.436;6.972;2023-05-29T00:50:51;13.80;99.90
2012;DHT22;1009;51.436;6.972;2023-05-29T00:53:21;13.70;99.90
2012;DHT22;1009;51.436;6.972;2023-05-29T00:55:51;13.60;99.90
2012;DHT22;1009;51.436;6.972;2023-05-29T00:58:22;13.60;99.90
2012;DHT22;1009;51.436;6.972;2023-05-29T01:00:49;13.50;99.90
2012;DHT22;1009;51.436;6.972;2023-05-29T01:03:16;13.50;99.90
2012;DHT22;1009;51.436;6.972;2023-05-29T01:05:45;13.40;99.90
2012;DHT22;1009;51.436;6.972;2023-05-29T01:08:17;13.40;99.90
2012;DHT22;1009;51.436;6.972;2023-05-29T01:10:44;13.30;99.90
2012;DHT22;1009;51.436;6.972;2023-05-29T01:13:15;13.30;99.90
2012;DHT22;1009;51.436;6.972;2023-05-29T01:15:48;13.30;99.90
2012;DHT22;1009;51.436;6.972;2023-05-29T01:18:30;13.20;99.90
2012;DHT22;1009;51.436;6.972;2023-05-29T01:21:06;13.20;99.90
2012;DHT22;1009;51.436;6.972;2023-05-29T01:24:06;13.10;99.90
2012;DHT22;1009;51.436;6.972;2023-05-29T01:26:47;13.10;99.90
2012;DHT22;1009;51.436;6.972;2023-05-29T01:29:18;13.10;99.90
2012;DHT22;1009;51.436;6.972;2023-05-29T01:31:46;13.00;99.90
2012;DHT22;1009;51.436;6.972;2023-05-29T01:34:12;13.00;99.90
2012;DHT22;1009;51.436;6.972;2023-05-29T01:36:39;12.90;99.90
2012;DHT22;1009;51.436;6.972;2023-05-29T01:39:07;12.90;99.90
2012;DHT22;1009;51.436;6.972;2023-05-29T01:41:35;12.80;99.90
2012;DHT22;1009;51.436;6.972;2023-05-29T01:44:05;12.70;99.90
2012;DHT22;1009;51.436;6.972;2023-05-29T01:46:34;12.70;99.90
2012;DHT22;1009;51.436;6.972;2023-05-29T01:49:02;12.50;99.90
2012;DHT22;1009;51.436;6.972;2023-05-29T01:51:29;12.40;99.90
2012;DHT22;1009;51.436;6.972;2023-05-29T01:53:57;12.40;99.90
2012;DHT22;1009;51.436;6.972;2023-05-29T01:56:29;12.40;99.90
2012;DHT22;1009;51.436;6.972;2023-05-29T01:58:57;12.30;99.90
2012;DHT22;1009;51.436;6.972;2023-05-29T02:01:26;12.20;99.90
2012;DHT22;1009;51.436;6.972;2023-05-29T02:03:53;12.10;99.90
2012;DHT22;1009;51.436;6.972;2023-05-29T02:06:20;12.10;99.90
2012;DHT22;1009;51.436;6.972;2023-05-29T02:08:47;12.00;99.90
2012;DHT22;1009;51.436;6.972;2023-05-29T02:11:14;12.00;99.90
2012;DHT22;1009;51.436;6.972;2023-05-29T02:13:41;11.90;99.90
2012;DHT22;1009;51.436;6.972;2023-05-29T02:16:08;12.00;99.90
2012;DHT22;1009;51.436;6.972;2023-05-29T02:18:36;11.90;99.90
2012;DHT22;1009;51.436;6.972;2023-05-29T02:21:03;11.90;99.90
2012;DHT22;1009;51.436;6.972;2023-05-29T02:23:29;11.90;99.90
2012;DHT22;1009;51.436;6.972;2023-05-29T02:25:56;11.90;99.90
2012;DHT22;1009;51.436;6.972;2023-05-29T02:28:23;11.90;99.90
2012;DHT22;1009;51.436;6.972;2023-05-29T02:30:50;11.90;99.90
2012;DHT22;1009;51.436;6.972;2023-05-29T02:33:17;11.80;99.90
2012;DHT22;1009;51.436;6.972;2023-05-29T02:35:45;11.80;99.90
2012;DHT22;1009;51.436;6.972;2023-05-29T02:38:11;11.80;99.90
2012;DHT22;1009;51.436;6.972;2023-05-29T02:40:39;11.80;99.90
2012;DHT22;1009;51.436;6.972;2023-05-29T02:43:06;11.80;99.90
2012;DHT22;1009;51.436;6.972;2023-05-29T02:45:32;11.80;99.90
2012;DHT22;1009;51.436;6.972;2023-05-29T02:47:59;11.80;99.90
2012;DHT22;1009;51.436;6.972;2023-05-29T02:50:26;11.90;99.90
2012;DHT22;1009;51.436;6.972;2023-05-29T02:52:54;11.90;99.90
2012;DHT22;1009;51.436;6.972;2023-05-29T02:55:21;11.90;99.90
2012;DHT22;1009;51.436;6.972;2023-05-29T02:57:48;12.00;99.90
2012;DHT22;1009;51.436;6.972;2023-05-29T03:00:18;11.90;99.90
2012;DHT22;1009;51.436;6.972;2023-05-29T03:02:49;11.90;99.90
2012;DHT22;1009;51.436;6.972;2023-05-29T03:05:16;12.00;99.90
2012;DHT22;1009;51.436;6.972;2023-05-29T03:07:43;11.90;99.90
2012;DHT22;1009;51.436;6.972;2023-05-29T03:10:11;11.90;99.90
2012;DHT22;1009;51.436;6.972;2023-05-29T03:12:42;11.80;99.90
2012;DHT22;1009;51.436;6.972;2023-05-29T03:15:10;11.80;99.90
2012;DHT22;1009;51.436;6.972;2023-05-29T03:17:37;11.70;99.90
2012;DHT22;1009;51.436;6.972;2023-05-29T03:20:05;11.60;99.90
2012;DHT22;1009;51.436;6.972;2023-05-29T03:22:33;11.50;99.90
2012;DHT22;1009;51.436;6.972;2023-05-29T03:25:01;11.50;99.90
2012;DHT22;1009;51.436;6.972;2023-05-29T03:27:29;11.60;99.90
2012;DHT22;1009;51.436;6.972;2023-05-29T03:29:56;11.50;99.90
2012;DHT22;1009;51.436;6.972;2023-05-29T03:32:23;11.40;99.90
2012;DHT22;1009;51.436;6.972;2023-05-29T03:34:50;11.50;99.90
2012;DHT22;1009;51.436;6.972;2023-05-29T03:37:17;11.50;99.90
2012;DHT22;1009;51.436;6.972;2023-05-29T03:39:43;11.50;99.90
2012;DHT22;1009;51.436;6.972;2023-05-29T03:42:10;11.40;99.90
2012;DHT22;1009;51.436;6.972;2023-05-29T03:44:38;11.30;99.90
2012;DHT22;1009;51.436;6.972;2023-05-29T03:47:05;11.30;99.90
2012;DHT22;1009;51.436;6.972;2023-05-29T03:49:34;11.30;99.90
2012;DHT22;1009;51.436;6.972;2023-05-29T03:52:01;11.20;99.90
2012;DHT22;1009;51.436;6.972;2023-05-29T03:54:27;11.20;99.90
2012;DHT22;1009;51.436;6.972;2023-05-29T03:56:54;11.10;99.90
2012;DHT22;1009;51.436;6.972;2023-05-29T03:59:21;11.10;99.90
2012;DHT22;1009;51.436;6.972;2023-05-29T04:01:49;11.00;99.90
2012;DHT22;1009;51.436;6.972;2023-05-29T04:04:16;11.00;99.90
2012;DHT22;1009;51.436;6.972;2023-05-29T04:06:42;11.00;99.90
2012;DHT22;1009;51.436;6.972;2023-05-29T04:09:10;11.00;99.90
2012;DHT22;1009;51.436;6.972;2023-05-29T04:11:39;11.00;99.90
2012;DHT22;1009;51.436;6.972;2023-05-29T04:14:07;11.00;99.90
2012;DHT22;1009;51.436;6.972;2023-05-29T04:16:33;11.00;99.90
2012;DHT22;1009;51.436;6.972;2023-05-29T04:19:02;11.00;99.90
2012;DHT22;1009;51.436;6.972;2023-05-29T04:21:29;11.00;99.90
2012;DHT22;1009;51.436;6.972;2023-05-29T04:23:58;11.00;99.90
2012;DHT22;1009;51.436;6.972;2023-05-29T04:26:24;11.00;99.90
2012;DHT22;1009;51.436;6.972;2023-05-29T04:28:52;11.00;99.90
2012;DHT22;1009;51.436;6.972;2023-05-29T04:31:22;11.10;99.90
2012;DHT22;1009;51.436;6.972;2023-05-29T04:33:50;11.20;99.90
2012;DHT22;1009;51.436;6.972;2023-05-29T04:36:22;11.20;99.90
2012;DHT22;1009;51.436;6.972;2023-05-29T04:38:54;11.20;99.90
2012;DHT22;1009;51.436;6.972;2023-05-29T04:41:20;11.20;99.90
2012;DHT22;1009;51.436;6.972;2023-05-29T04:43:50;11.20;99.90
2012;DHT22;1009;51.436;6.972;2023-05-29T04:46:33;11.30;99.90
2012;DHT22;1009;51.436;6.972;2023-05-29T04:49:11;11.30;99.90
2012;DHT22;1009;51.436;6.972;2023-05-29T04:51:39;11.20;99.90
2012;DHT22;1009;51.436;6.972;2023-05-29T04:54:07;11.10;99.90
2012;DHT22;1009;51.436;6.972;2023-05-29T04:56:34;11.10;99.90
2012;DHT22;1009;51.436;6.972;2023-05-29T04:59:02;11.10;99.90
2012;DHT22;1009;51.436;6.972;2023-05-29T05:01:29;11.10;99.90
2012;DHT22;1009;51.436;6.972;2023-05-29T05:03:58;11.20;99.90
2012;DHT22;1009;51.436;6.972;2023-05-29T05:06:25;11.20;99.90
2012;DHT22;1009;51.436;6.972;2023-05-29T05:08:58;11.10;99.90
2012;DHT22;1009;51.436;6.972;2023-05-29T05:11:27;11.10;99.90
2012;DHT22;1009;51.436;6.972;2023-05-29T05:13:57;11.10;99.90
2012;DHT22;1009;51.436;6.972;2023-05-29T05:16:24;11.10;99.90
2012;DHT22;1009;51.436;6.972;2023-05-29T05:18:51;11.30;99.90
2012;DHT22;1009;51.436;6.972;2023-05-29T05:21:18;11.30;99.90
2012;DHT22;1009;51.436;6.972;2023-05-29T05:23:45;11.30;99.90
2012;DHT22;1009;51.436;6.972;2023-05-29T05:26:13;11.30;99.90
2012;DHT22;1009;51.436;6.972;2023-05-29T05:28:40;11.30;99.90
2012;DHT22;1009;51.436;6.972;2023-05-29T05:31:07;11.40;99.90
2012;DHT22;1009;51.436;6.972;2023-05-29T05:33:34;11.50;99.90
2012;DHT22;1009;51.436;6.972;2023-05-29T05:36:01;11.60;99.90
2012;DHT22;1009;51.436;6.972;2023-05-29T05:38:27;11.60;99.90
2012;DHT22;1009;51.436;6.972;2023-05-29T05:40:54;11.60;99.90
2012;DHT22;1009;51.436;6.972;2023-05-29T05:43:22;11.80;99.90
2012;DHT22;1009;51.436;6.972;2023-05-29T05:45:49;11.90;99.90
2012;DHT22;1009;51.436;6.972;2023-05-29T05:48:16;12.00;99.90
2012;DHT22;1009;51.436;6.972;2023-05-29T05:50:43;12.00;99.90
2012;DHT22;1009;51.436;6.972;2023-05-29T05:53:09;12.00;99.90
2012;DHT22;1009;51.436;6.972;2023-05-29T05:55:36;12.10;99.90
2012;DHT22;1009;51.436;6.972;2023-05-29T05:58:03;12.20;99.90
2012;DHT22;1009;51.436;6.972;2023-05-29T06:00:31;12.20;99.90
2012;DHT22;1009;51.436;6.972;2023-05-29T06:02:58;12.20;99.90
2012;DHT22;1009;51.436;6.972;2023-05-29T06:05:25;12.20;99.90
2012;DHT22;1009;51.436;6.972;2023-05-29T06:07:52;12.20;99.90
2012;DHT22;1009;51.436;6.972;2023-05-29T06:10:19;12.20;99.90
2012;DHT22;1009;51.436;6.972;2023-05-29T06:12:45;12.30;99.90
2012;DHT22;1009;51.436;6.972;2023-05-29T06:15:12;12.50;99.90
2012;DHT22;1009;51.436;6.972;2023-05-29T06:17:40;12.60;99.90
2012;DHT22;1009;51.436;6.972;2023-05-29T06:20:13;12.70;99.90
2012;DHT22;1009;51.436;6.972;2023-05-29T06:22:40;12.90;99.90
2012;DHT22;1009;51.436;6.972;2023-05-29T06:25:07;13.20;99.90
2012;DHT22;1009;51.436;6.972;2023-05-29T06:27:34;13.30;99.90
2012;DHT22;1009;51.436;6.972;2023-05-29T06:30:01;13.20;99.90
2012;DHT22;1009;51.436;6.972;2023-05-29T06:32:28;13.10;99.90
2012;DHT22;1009;51.436;6.972;2023-05-29T06:34:56;13.20;99.90
2012;DHT22;1009;51.436;6.972;2023-05-29T06:37:22;13.40;99.90
2012;DHT22;1009;51.436;6.972;2023-05-29T06:39:49;13.30;99.90
2012;DHT22;1009;51.436;6.972;2023-05-29T06:42:16;13.30;99.90
2012;DHT22;1009;51.436;6.972;2023-05-29T06:44:42;13.30;99.90
2012;DHT22;1009;51.436;6.972;2023-05-29T06:47:09;13.50;99.90
2012;DHT22;1009;51.436;6.972;2023-05-29T06:49:36;13.60;99.90
2012;DHT22;1009;51.436;6.972;2023-05-29T06:52:04;13.70;99.90
2012;DHT22;1009;51.436;6.972;2023-05-29T06:54:31;13.80;99.90
2012;DHT22;1009;51.436;6.972;2023-05-29T06:56:57;13.90;99.90
2012;DHT22;1009;51.436;6.972;2023-05-29T06:59:24;14.00;99.90
2012;DHT22;1009;51.436;6.972;2023-05-29T07:01:51;14.10;99.90
2012;DHT22;1009;51.436;6.972;2023-05-29T07:04:17;14.10;99.90
2012;DHT22;1009;51.436;6.972;2023-05-29T07:06:44;14.10;99.90
2012;DHT22;1009;51.436;6.972;2023-05-29T07:09:12;14.10;99.90
2012;DHT22;1009;51.436;6.972;2023-05-29T07:11:42;14.10;99.90
2012;DHT22;1009;51.436;6.972;2023-05-29T07:14:08;14.20;99.90
2012;DHT22;1009;51.436;6.972;2023-05-29T07:16:36;14.30;99.90
2012;DHT22;1009;51.436;6.972;2023-05-29T07:19:03;14.50;99.90
2012;DHT22;1009;51.436;6.972;2023-05-29T07:21:30;14.70;99.90
2012;DHT22;1009;51.436;6.972;2023-05-29T07:23:58;14.70;99.90
2012;DHT22;1009;51.436;6.972;2023-05-29T07:26:26;14.70;99.90
2012;DHT22;1009;51.436;6.972;2023-05-29T07:28:56;14.40;99.90
2012;DHT22;1009;51.436;6.972;2023-05-29T07:31:23;14.50;99.90
2012;DHT22;1009;51.436;6.972;2023-05-29T07:33:50;14.40;99.90
2012;DHT22;1009;51.436;6.972;2023-05-29T07:36:16;14.30;99.90
2012;DHT22;1009;51.436;6.972;2023-05-29T07:38:43;14.50;99.90
2012;DHT22;1009;51.436;6.972;2023-05-29T07:41:10;14.70;99.90
2012;DHT22;1009;51.436;6.972;2023-05-29T07:43:38;14.80;99.90
2012;DHT22;1009;51.436;6.972;2023-05-29T07:46:05;14.70;99.90
2012;DHT22;1009;51.436;6.972;2023-05-29T07:48:32;14.60;99.90
2012;DHT22;1009;51.436;6.972;2023-05-29T07:50:59;14.60;99.90
2012;DHT22;1009;51.436;6.972;2023-05-29T07:53:25;14.80;99.90
2012;DHT22;1009;51.436;6.972;2023-05-29T07:55:52;14.80;99.90
2012;DHT22;1009;51.436;6.972;2023-05-29T07:58:19;14.80;99.90
2012;DHT22;1009;51.436;6.972;2023-05-29T08:00:47;14.90;99.90
2012;DHT22;1009;51.436;6.972;2023-05-29T08:03:14;15.10;99.90
2012;DHT22;1009;51.436;6.972;2023-05-29T08:05:41;15.20;99.90
2012;DHT22;1009;51.436;6.972;2023-05-29T08:08:08;15.30;99.90
2012;DHT22;1009;51.436;6.972;2023-05-29T08:10:37;15.50;99.90
2012;DHT22;1009;51.436;6.972;2023-05-29T08:13:04;15.60;99.90
2012;DHT22;1009;51.436;6.972;2023-05-29T08:15:31;15.60;99.90
2012;DHT22;1009;51.436;6.972;2023-05-29T08:17:59;15.50;99.90
2012;DHT22;1009;51.436;6.972;2023-05-29T08:20:26;15.30;99.90
2012;DHT22;1009;51.436;6.972;2023-05-29T08:22:53;15.40;99.90
2012;DHT22;1009;51.436;6.972;2023-05-29T08:25:20;15.30;99.90
2012;DHT22;1009;51.436;6.972;2023-05-29T08:27:50;15.40;99.90
2012;DHT22;1009;51.436;6.972;2023-05-29T08:30:17;15.70;99.90
2012;DHT22;1009;51.436;6.972;2023-05-29T08:32:44;15.80;99.90
2012;DHT22;1009;51.436;6.972;2023-05-29T08:35:13;15.80;99.90
2012;DHT22;1009;51.436;6.972;2023-05-29T08:37:40;16.10;99.90
2012;DHT22;1009;51.436;6.972;2023-05-29T08:40:07;16.20;99.90
2012;DHT22;1009;51.436;6.972;2023-05-29T08:42:40;16.20;99.90
2012;DHT22;1009;51.436;6.972;2023-05-29T08:45:13;16.20;99.90
2012;DHT22;1009;51.436;6.972;2023-05-29T08:47:41;16.20;99.90
2012;DHT22;1009;51.436;6.972;2023-05-29T08:50:08;16.40;99.90
2012;DHT22;1009;51.436;6.972;2023-05-29T08:52:37;16.60;99.90
2012;DHT22;1009;51.436;6.972;2023-05-29T08:55:06;16.60;99.90
2012;DHT22;1009;51.436;6.972;2023-05-29T08:57:33;16.50;99.90
2012;DHT22;1009;51.436;6.972;2023-05-29T09:00:01;16.40;99.90
2012;DHT22;1009;51.436;6.972;2023-05-29T09:02:40;16.40;99.90
2012;DHT22;1009;51.436;6.972;2023-05-29T09:05:12;16.80;99.90
2012;DHT22;1009;51.436;6.972;2023-05-29T09:07:41;16.80;99.90
2012;DHT22;1009;51.436;6.972;2023-05-29T09:10:09;16.50;99.90
2012;DHT22;1009;51.436;6.972;2023-05-29T09:12:36;16.40;99.90
2012;DHT22;1009;51.436;6.972;2023-05-29T09:15:08;16.60;99.90
2012;DHT22;1009;51.436;6.972;2023-05-29T09:17:42;16.60;99.90
2012;DHT22;1009;51.436;6.972;2023-05-29T09:20:14;16.80;99.90
2012;DHT22;1009;51.436;6.972;2023-05-29T09:22:52;17.10;99.90
2012;DHT22;1009;51.436;6.972;2023-05-29T09:25:19;17.40;99.90
2012;DHT22;1009;51.436;6.972;2023-05-29T09:27:48;17.40;99.90
2012;DHT22;1009;51.436;6.972;2023-05-29T09:30:31;17.40;99.90
2012;DHT22;1009;51.436;6.972;2023-05-29T09:32:59;17.00;99.90
2012;DHT22;1009;51.436;6.972;2023-05-29T09:35:26;16.80;99.90
2012;DHT22;1009;51.436;6.972;2023-05-29T09:37:55;16.90;99.90
2012;DHT22;1009;51.436;6.972;2023-05-29T09:40:24;16.80;99.90
2012;DHT22;1009;51.436;6.972;2023-05-29T09:42:51;16.80;99.90
2012;DHT22;1009;51.436;6.972;2023-05-29T09:45:21;16.90;99.90
2012;DHT22;1009;51.436;6.972;2023-05-29T09:47:50;17.10;99.90
2012;DHT22;1009;51.436;6.972;2023-05-29T09:50:18;17.20;99.90
2012;DHT22;1009;51.436;6.972;2023-05-29T09:52:46;17.40;99.90
2012;DHT22;1009;51.436;6.972;2023-05-29T09:55:20;17.50;99.90
2012;DHT22;1009;51.436;6.972;2023-05-29T09:57:47;17.50;99.90
2012;DHT22;1009;51.436;6.972;2023-05-29T10:00:15;17.70;99.90
2012;DHT22;1009;51.436;6.972;2023-05-29T10:02:43;17.80;99.90
2012;DHT22;1009;51.436;6.972;2023-05-29T10:05:10;17.90;99.90
2012;DHT22;1009;51.436;6.972;2023-05-29T10:07:43;17.90;99.90
2012;DHT22;1009;51.436;6.972;2023-05-29T10:10:13;17.80;99.90
2012;DHT22;1009;51.436;6.972;2023-05-29T10:12:47;17.90;99.90
2012;DHT22;1009;51.436;6.972;2023-05-29T10:15:15;17.80;99.90
2012;DHT22;1009;51.436;6.972;2023-05-29T10:17:52;17.70;99.90
2012;DHT22;1009;51.436;6.972;2023-05-29T10:20:20;17.70;99.90
2012;DHT22;1009;51.436;6.972;2023-05-29T10:22:50;17.70;99.90
2012;DHT22;1009;51.436;6.972;2023-05-29T10:25:18;17.90;99.90
2012;DHT22;1009;51.436;6.972;2023-05-29T10:27:48;18.20;99.90
2012;DHT22;1009;51.436;6.972;2023-05-29T10:30:24;18.20;99.90
2012;DHT22;1009;51.436;6.972;2023-05-29T10:35:47;18.00;99.90
2012;DHT22;1009;51.436;6.972;2023-05-29T10:38:15;18.10;99.90
2012;DHT22;1009;51.436;6.972;2023-05-29T10:40:44;18.20;99.90
2012;DHT22;1009;51.436;6.972;2023-05-29T10:43:29;18.50;99.90
2012;DHT22;1009;51.436;6.972;2023-05-29T10:46:02;18.80;99.90
2012;DHT22;1009;51.436;6.972;2023-05-29T10:48:40;18.60;99.90
2012;DHT22;1009;51.436;6.972;2023-05-29T10:51:27;18.50;99.90
2012;DHT22;1009;51.436;6.972;2023-05-29T10:53:54;18.60;99.90
2012;DHT22;1009;51.436;6.972;2023-05-29T10:56:23;18.50;99.90
2012;DHT22;1009;51.436;6.972;2023-05-29T10:58:55;18.50;99.90
2012;DHT22;1009;51.436;6.972;2023-05-29T11:01:23;18.70;99.90
2012;DHT22;1009;51.436;6.972;2023-05-29T11:03:50;18.80;99.90
2012;DHT22;1009;51.436;6.972;2023-05-29T11:06:19;19.20;99.90
2012;DHT22;1009;51.436;6.972;2023-05-29T11:08:47;19.40;99.90
2012;DHT22;1009;51.436;6.972;2023-05-29T11:11:29;19.50;99.90
2012;DHT22;1009;51.436;6.972;2023-05-29T11:14:02;19.70;99.90
2012;DHT22;1009;51.436;6.972;2023-05-29T11:16:37;19.70;99.90
2012;DHT22;1009;51.436;6.972;2023-05-29T11:19:04;19.20;99.90
2012;DHT22;1009;51.436;6.972;2023-05-29T11:21:48;19.30;99.90
2012;DHT22;1009;51.436;6.972;2023-05-29T11:24:21;19.60;99.90
2012;DHT22;1009;51.436;6.972;2023-05-29T11:26:48;19.60;99.90
2012;DHT22;1009;51.436;6.972;2023-05-29T11:29:21;19.60;99.90
2012;DHT22;1009;51.436;6.972;2023-05-29T11:31:53;19.90;99.90
2012;DHT22;1009;51.436;6.972;2023-05-29T11:34:21;19.60;99.90
2012;DHT22;1009;51.436;6.972;2023-05-29T11:36:51;19.20;99.90
2012;DHT22;1009;51.436;6.972;2023-05-29T11:39:18;19.10;99.90
2012;DHT22;1009;51.436;6.972;2023-05-29T11:41:44;18.80;99.90
2012;DHT22;1009;51.436;6.972;2023-05-29T11:44:13;18.90;99.90
2012;DHT22;1009;51.436;6.972;2023-05-29T11:46:41;18.80;99.90
2012;DHT22;1009;51.436;6.972;2023-05-29T11:49:08;18.80;99.90
2012;DHT22;1009;51.436;6.972;2023-05-29T11:51:35;18.80;99.90
2012;DHT22;1009;51.436;6.972;2023-05-29T11:54:02;19.10;99.90
2012;DHT22;1009;51.436;6.972;2023-05-29T11:56:29;19.20;99.90
2012;DHT22;1009;51.436;6.972;2023-05-29T11:58:58;19.00;99.90
2012;DHT22;1009;51.436;6.972;2023-05-29T12:01:26;18.90;99.90
2012;DHT22;1009;51.436;6.972;2023-05-29T12:03:58;18.90;99.90
2012;DHT22;1009;51.436;6.972;2023-05-29T12:06:31;19.00;99.90
2012;DHT22;1009;51.436;6.972;2023-05-29T12:08:59;19.10;99.90
2012;DHT22;1009;51.436;6.972;2023-05-29T12:11:26;19.40;99.90
2012;DHT22;1009;51.436;6.972;2023-05-29T12:13:56;19.80;99.90
2012;DHT22;1009;51.436;6.972;2023-05-29T12:16:23;19.90;99.90
2012;DHT22;1009;51.436;6.972;2023-05-29T12:18:51;20.00;99.90
2012;DHT22;1009;51.436;6.972;2023-05-29T12:21:19;20.00;99.90
2012;DHT22;1009;51.436;6.972;2023-05-29T12:23:46;20.00;99.90
2012;DHT22;1009;51.436;6.972;2023-05-29T12:26:13;19.90;99.90
2012;DHT22;1009;51.436;6.972;2023-05-29T12:28:43;19.90;99.90
2012;DHT22;1009;51.436;6.972;2023-05-29T12:31:12;20.30;99.90
2012;DHT22;1009;51.436;6.972;2023-05-29T12:33:45;20.30;99.90
2012;DHT22;1009;51.436;6.972;2023-05-29T12:36:12;20.30;99.90
2012;DHT22;1009;51.436;6.972;2023-05-29T12:38:51;20.20;99.90
2012;DHT22;1009;51.436;6.972;2023-05-29T12:41:25;20.40;99.90
2012;DHT22;1009;51.436;6.972;2023-05-29T12:43:53;20.50;99.90
2012;DHT22;1009;51.436;6.972;2023-05-29T12:46:20;20.30;99.90
2012;DHT22;1009;51.436;6.972;2023-05-29T12:48:47;20.60;99.90
2012;DHT22;1009;51.436;6.972;2023-05-29T12:51:15;20.30;99.90
2012;DHT22;1009;51.436;6.972;2023-05-29T12:53:41;20.30;99.90
2012;DHT22;1009;51.436;6.972;2023-05-29T12:56:09;20.20;99.90
2012;DHT22;1009;51.436;6.972;2023-05-29T12:58:36;19.90;99.90
2012;DHT22;1009;51.436;6.972;2023-05-29T13:01:03;19.80;99.90
2012;DHT22;1009;51.436;6.972;2023-05-29T13:03:29;19.90;99.90
2012;DHT22;1009;51.436;6.972;2023-05-29T13:05:56;19.90;99.90
2012;DHT22;1009;51.436;6.972;2023-05-29T13:08:23;19.70;99.90
2012;DHT22;1009;51.436;6.972;2023-05-29T13:10:50;19.50;99.90
2012;DHT22;1009;51.436;6.972;2023-05-29T13:13:18;19.50;99.90
2012;DHT22;1009;51.436;6.972;2023-05-29T13:15:45;19.30;99.90
2012;DHT22;1009;51.436;6.972;2023-05-29T13:18:12;19.50;99.90
2012;DHT22;1009;51.436;6.972;2023-05-29T13:20:39;19.60;99.90
2012;DHT22;1009;51.436;6.972;2023-05-29T13:23:08;19.90;99.90
2012;DHT22;1009;51.436;6.972;2023-05-29T13:25:35;20.00;99.90
2012;DHT22;1009;51.436;6.972;2023-05-29T13:28:02;20.10;99.90
2012;DHT22;1009;51.436;6.972;2023-05-29T13:30:30;20.10;99.90
2012;DHT22;1009;51.436;6.972;2023-05-29T13:32:57;20.00;99.90
2012;DHT22;1009;51.436;6.972;2023-05-29T13:35:23;19.80;99.90
2012;DHT22;1009;51.436;6.972;2023-05-29T13:37:50;19.70;99.90
2012;DHT22;1009;51.436;6.972;2023-05-29T13:40:17;19.90;99.90
2012;DHT22;1009;51.436;6.972;2023-05-29T13:42:43;19.80;99.90
2012;DHT22;1009;51.436;6.972;2023-05-29T13:45:10;19.70;99.90
2012;DHT22;1009;51.436;6.972;2023-05-29T13:47:39;19.70;99.90
2012;DHT22;1009;51.436;6.972;2023-05-29T13:50:07;19.50;99.90
2012;DHT22;1009;51.436;6.972;2023-05-29T13:52:34;19.20;99.90
2012;DHT22;1009;51.436;6.972;2023-05-29T13:55:07;19.20;99.90
2012;DHT22;1009;51.436;6.972;2023-05-29T13:57:34;19.10;99.90
2012;DHT22;1009;51.436;6.972;2023-05-29T14:00:02;19.10;99.90
2012;DHT22;1009;51.436;6.972;2023-05-29T14:02:29;18.90;99.90
2012;DHT22;1009;51.436;6.972;2023-05-29T14:04:57;18.80;99.90
2012;DHT22;1009;51.436;6.972;2023-05-29T14:07:23;18.90;99.90
2012;DHT22;1009;51.436;6.972;2023-05-29T14:09:50;18.90;99.90
2012;DHT22;1009;51.436;6.972;2023-05-29T14:12:17;19.00;99.90
2012;DHT22;1009;51.436;6.972;2023-05-29T14:14:43;19.10;99.90
2012;DHT22;1009;51.436;6.972;2023-05-29T14:17:10;19.20;99.90
2012;DHT22;1009;51.436;6.972;2023-05-29T14:19:37;18.90;99.90
2012;DHT22;1009;51.436;6.972;2023-05-29T14:22:06;19.00;99.90
2012;DHT22;1009;51.436;6.972;2023-05-29T14:24:32;19.00;99.90
2012;DHT22;1009;51.436;6.972;2023-05-29T14:27:02;18.90;99.90
2012;DHT22;1009;51.436;6.972;2023-05-29T14:29:29;19.00;99.90
2012;DHT22;1009;51.436;6.972;2023-05-29T14:32:02;19.00;99.90
2012;DHT22;1009;51.436;6.972;2023-05-29T14:34:29;19.10;99.90
2012;DHT22;1009;51.436;6.972;2023-05-29T14:36:58;19.00;99.90
2012;DHT22;1009;51.436;6.972;2023-05-29T14:39:26;18.90;99.90
2012;DHT22;1009;51.436;6.972;2023-05-29T14:41:53;19.00;99.90
2012;DHT22;1009;51.436;6.972;2023-05-29T14:44:20;19.10;99.90
2012;DHT22;1009;51.436;6.972;2023-05-29T14:46:46;19.30;99.90
2012;DHT22;1009;51.436;6.972;2023-05-29T14:49:13;19.20;99.90
2012;DHT22;1009;51.436;6.972;2023-05-29T14:51:40;19.30;99.90
2012;DHT22;1009;51.436;6.972;2023-05-29T14:54:08;19.60;99.90
2012;DHT22;1009;51.436;6.972;2023-05-29T14:56:36;19.80;99.90
2012;DHT22;1009;51.436;6.972;2023-05-29T14:59:03;19.70;99.90
2012;DHT22;1009;51.436;6.972;2023-05-29T15:01:35;19.50;99.90
2012;DHT22;1009;51.436;6.972;2023-05-29T15:04:02;19.40;99.90
2012;DHT22;1009;51.436;6.972;2023-05-29T15:06:29;19.30;99.90
2012;DHT22;1009;51.436;6.972;2023-05-29T15:08:59;19.30;99.90
2012;DHT22;1009;51.436;6.972;2023-05-29T15:11:26;19.30;99.90
2012;DHT22;1009;51.436;6.972;2023-05-29T15:13:54;19.40;99.90
2012;DHT22;1009;51.436;6.972;2023-05-29T15:16:21;19.30;99.90
2012;DHT22;1009;51.436;6.972;2023-05-29T15:18:48;19.40;99.90
2012;DHT22;1009;51.436;6.972;2023-05-29T15:21:15;19.20;99.90
2012;DHT22;1009;51.436;6.972;2023-05-29T15:23:41;19.20;99.90
2012;DHT22;1009;51.436;6.972;2023-05-29T15:26:09;19.00;99.40
2012;DHT22;1009;51.436;6.972;2023-05-29T15:28:36;18.90;99.90
2012;DHT22;1009;51.436;6.972;2023-05-29T15:31:04;19.00;99.60
2012;DHT22;1009;51.436;6.972;2023-05-29T15:33:31;19.20;99.90
2012;DHT22;1009;51.436;6.972;2023-05-29T15:35:58;19.40;99.90
2012;DHT22;1009;51.436;6.972;2023-05-29T15:38:24;19.20;99.90
2012;DHT22;1009;51.436;6.972;2023-05-29T15:40:51;19.10;99.90
2012;DHT22;1009;51.436;6.972;2023-05-29T15:43:18;19.20;99.90
2012;DHT22;1009;51.436;6.972;2023-05-29T15:45:45;19.30;99.50
2012;DHT22;1009;51.436;6.972;2023-05-29T15:48:13;19.30;98.80
2012;DHT22;1009;51.436;6.972;2023-05-29T15:50:39;19.30;99.20
2012;DHT22;1009;51.436;6.972;2023-05-29T15:53:06;19.10;97.90
2012;DHT22;1009;51.436;6.972;2023-05-29T15:55:33;19.10;98.10
2012;DHT22;1009;51.436;6.972;2023-05-29T15:58:00;19.00;98.00
2012;DHT22;1009;51.436;6.972;2023-05-29T16:00:27;18.90;99.40
2012;DHT22;1009;51.436;6.972;2023-05-29T16:02:53;18.90;99.30
2012;DHT22;1009;51.436;6.972;2023-05-29T16:05:22;18.90;97.00
2012;DHT22;1009;51.436;6.972;2023-05-29T16:07:48;19.00;97.70
2012;DHT22;1009;51.436;6.972;2023-05-29T16:10:16;19.10;98.30
2012;DHT22;1009;51.436;6.972;2023-05-29T16:12:43;19.00;96.60